sensor_id;sensor_type;location;lat;lon;timestamp;pressure;altitude;pressure_sealevel;temperature;humidity
61710;BME280;47633;51.494;5.386;2023-03-01T00:01:04;103004.88;;;18.26;39.45
61710;BME280;47633;51.494;5.386;2023-03-01T00:03:32;103010.94;;;18.28;39.38
61710;BME280;47633;51.494;5.386;2023-03-01T00:05:57;103009.13;;;18.29;39.20
61710;BME280;47633;51.494;5.386;2023-03-01T00:08:23;103010.88;;;18.30;39.43
61710;BME280;47633;51.494;5.386;2023-03-01T00:10:49;103000.53;;;18.25;39.34
61710;BME280;47633;51.494;5.386;2023-03-01T00:13:14;103015.38;;;18.28;39.28
61710;BME280;47633;51.494;5.386;2023-03-01T00:15:40;103009.28;;;18.26;39.39
61710;BME280;47633;51.494;5.386;2023-03-01T00:18:07;103011.00;;;18.27;39.07
61710;BME280;47633;51.494;5.386;2023-03-01T00:20:33;103020.72;;;18.26;39.19
61710;BME280;47633;51.494;5.386;2023-03-01T00:22:58;103014.72;;;18.23;39.00
61710;BME280;47633;51.494;5.386;2023-03-01T00:25:24;103008.59;;;18.22;39.21
61710;BME280;47633;51.494;5.386;2023-03-01T00:27:49;103010.44;;;18.20;39.19
61710;BME280;47633;51.494;5.386;2023-03-01T00:30:15;103006.03;;;18.21;39.05
61710;BME280;47633;51.494;5.386;2023-03-01T00:32:40;103000.19;;;18.14;38.93
61710;BME280;47633;51.494;5.386;2023-03-01T00:35:05;103009.66;;;18.18;39.02
61710;BME280;47633;51.494;5.386;2023-03-01T00:37:31;103010.59;;;18.17;39.22
61710;BME280;47633;51.494;5.386;2023-03-01T00:39:56;103009.91;;;18.13;39.18
61710;BME280;47633;51.494;5.386;2023-03-01T00:42:21;103002.97;;;18.11;38.98
61710;BME280;47633;51.494;5.386;2023-03-01T00:44:47;103007.31;;;18.12;39.04
61710;BME280;47633;51.494;5.386;2023-03-01T00:47:12;103012.69;;;18.10;39.00
61710;BME280;47633;51.494;5.386;2023-03-01T00:49:39;103012.75;;;18.09;38.86
61710;BME280;47633;51.494;5.386;2023-03-01T00:52:04;103005.81;;;18.06;39.43
61710;BME280;47633;51.494;5.386;2023-03-01T00:54:29;102999.63;;;18.07;38.98
61710;BME280;47633;51.494;5.386;2023-03-01T00:56:54;102998.03;;;18.03;38.90
61710;BME280;47633;51.494;5.386;2023-03-01T00:59:20;102994.56;;;18.03;38.99
61710;BME280;47633;51.494;5.386;2023-03-01T01:01:45;102990.19;;;18.02;39.04
61710;BME280;47633;51.494;5.386;2023-03-01T01:04:12;102983.31;;;17.99;39.10
61710;BME280;47633;51.494;5.386;2023-03-01T01:06:40;102988.41;;;18.02;39.02
61710;BME280;47633;51.494;5.386;2023-03-01T01:09:09;102985.94;;;17.99;39.16
61710;BME280;47633;51.494;5.386;2023-03-01T01:11:35;102985.06;;;17.99;39.01
61710;BME280;47633;51.494;5.386;2023-03-01T01:14:02;102976.44;;;17.95;39.00
61710;BME280;47633;51.494;5.386;2023-03-01T01:16:29;102977.34;;;17.94;38.84
61710;BME280;47633;51.494;5.386;2023-03-01T01:18:55;102974.72;;;17.94;39.03
61710;BME280;47633;51.494;5.386;2023-03-01T01:21:23;102974.09;;;17.89;38.82
61710;BME280;47633;51.494;5.386;2023-03-01T01:23:48;102966.09;;;17.90;38.93
61710;BME280;47633;51.494;5.386;2023-03-01T01:26:25;102973.09;;;17.91;38.95
61710;BME280;47633;51.494;5.386;2023-03-01T01:28:51;102966.94;;;17.91;39.15
61710;BME280;47633;51.494;5.386;2023-03-01T01:31:18;102953.94;;;17.86;39.12
61710;BME280;47633;51.494;5.386;2023-03-01T01:33:44;102951.31;;;17.86;38.81
61710;BME280;47633;51.494;5.386;2023-03-01T01:36:10;102946.00;;;17.88;39.09
61710;BME280;47633;51.494;5.386;2023-03-01T01:38:36;102939.13;;;17.84;38.98
61710;BME280;47633;51.494;5.386;2023-03-01T01:41:03;102941.63;;;17.87;38.90
61710;BME280;47633;51.494;5.386;2023-03-01T01:43:31;102933.09;;;17.82;38.79
61710;BME280;47633;51.494;5.386;2023-03-01T01:46:06;102934.00;;;17.81;38.86
61710;BME280;47633;51.494;5.386;2023-03-01T01:48:46;102932.28;;;17.80;38.99
61710;BME280;47633;51.494;5.386;2023-03-01T01:51:18;102930.59;;;17.79;38.92
61710;BME280;47633;51.494;5.386;2023-03-01T01:53:47;102931.44;;;17.79;39.04
61710;BME280;47633;51.494;5.386;2023-03-01T01:56:15;102934.06;;;17.79;38.71
61710;BME280;47633;51.494;5.386;2023-03-01T01:58:42;102935.00;;;17.78;38.64
61710;BME280;47633;51.494;5.386;2023-03-01T02:01:08;102928.09;;;17.75;38.86
61710;BME280;47633;51.494;5.386;2023-03-01T02:03:36;102919.44;;;17.72;38.85
61710;BME280;47633;51.494;5.386;2023-03-01T02:06:15;102924.56;;;17.75;38.95
61710;BME280;47633;51.494;5.386;2023-03-01T02:08:44;102918.47;;;17.74;38.68
61710;BME280;47633;51.494;5.386;2023-03-01T02:11:11;102915.13;;;17.71;38.69
61710;BME280;47633;51.494;5.386;2023-03-01T02:13:40;102914.09;;;17.73;38.89
61710;BME280;47633;51.494;5.386;2023-03-01T02:16:10;102914.25;;;17.70;38.93
61710;BME280;47633;51.494;5.386;2023-03-01T02:18:38;102910.84;;;17.68;38.79
61710;BME280;47633;51.494;5.386;2023-03-01T02:21:20;102905.69;;;17.65;38.66
61710;BME280;47633;51.494;5.386;2023-03-01T02:23:48;102897.84;;;17.64;38.99
61710;BME280;47633;51.494;5.386;2023-03-01T02:26:50;102898.66;;;17.66;38.94
61710;BME280;47633;51.494;5.386;2023-03-01T02:29:16;102904.78;;;17.66;38.85
61710;BME280;47633;51.494;5.386;2023-03-01T02:31:42;102898.75;;;17.64;38.72
61710;BME280;47633;51.494;5.386;2023-03-01T02:34:16;102904.00;;;17.64;39.02
61710;BME280;47633;51.494;5.386;2023-03-01T02:36:55;102895.50;;;17.57;38.84
61710;BME280;47633;51.494;5.386;2023-03-01T02:39:26;102907.56;;;17.63;38.71
61710;BME280;47633;51.494;5.386;2023-03-01T02:41:56;102903.28;;;17.61;38.68
61710;BME280;47633;51.494;5.386;2023-03-01T02:44:22;102907.78;;;17.58;38.92
61710;BME280;47633;51.494;5.386;2023-03-01T02:46:51;102913.88;;;17.59;38.81
61710;BME280;47633;51.494;5.386;2023-03-01T02:55:11;102917.47;;;17.58;38.65
61710;BME280;47633;51.494;5.386;2023-03-01T02:57:40;102918.38;;;17.57;38.69
61710;BME280;47633;51.494;5.386;2023-03-01T03:00:12;102906.25;;;17.53;38.84
61710;BME280;47633;51.494;5.386;2023-03-01T03:02:45;102907.13;;;17.53;38.81
61710;BME280;47633;51.494;5.386;2023-03-01T03:05:16;102895.78;;;17.51;38.72
61710;BME280;47633;51.494;5.386;2023-03-01T03:07:44;102896.59;;;17.53;38.71
61710;BME280;47633;51.494;5.386;2023-03-01T03:10:17;102899.28;;;17.52;38.85
61710;BME280;47633;51.494;5.386;2023-03-01T03:12:48;102898.50;;;17.50;38.59
61710;BME280;47633;51.494;5.386;2023-03-01T03:15:14;102897.56;;;17.51;38.74
61710;BME280;47633;51.494;5.386;2023-03-01T03:17:41;102905.56;;;17.49;38.69
61710;BME280;47633;51.494;5.386;2023-03-01T03:20:08;102903.88;;;17.48;38.58
61710;BME280;47633;51.494;5.386;2023-03-01T03:22:38;102903.69;;;17.51;38.57
61710;BME280;47633;51.494;5.386;2023-03-01T03:25:05;102899.44;;;17.49;38.92
61710;BME280;47633;51.494;5.386;2023-03-01T03:27:30;102895.00;;;17.49;38.56
61710;BME280;47633;51.494;5.386;2023-03-01T03:29:57;102899.44;;;17.49;38.87
61710;BME280;47633;51.494;5.386;2023-03-01T03:32:22;102906.41;;;17.50;38.50
61710;BME280;47633;51.494;5.386;2023-03-01T03:34:47;102897.56;;;17.51;38.67
61710;BME280;47633;51.494;5.386;2023-03-01T03:37:13;102891.59;;;17.47;38.68
61710;BME280;47633;51.494;5.386;2023-03-01T03:39:58;102889.81;;;17.48;38.65
61710;BME280;47633;51.494;5.386;2023-03-01T03:42:24;102895.00;;;17.49;38.58
61710;BME280;47633;51.494;5.386;2023-03-01T03:44:49;102888.81;;;17.50;38.50
61710;BME280;47633;51.494;5.386;2023-03-01T03:47:14;102884.53;;;17.48;38.65
61710;BME280;47633;51.494;5.386;2023-03-01T03:49:39;102888.81;;;17.50;38.69
61710;BME280;47633;51.494;5.386;2023-03-01T03:52:05;102892.38;;;17.49;38.61
61710;BME280;47633;51.494;5.386;2023-03-01T03:54:39;102893.38;;;17.47;38.63
61710;BME280;47633;51.494;5.386;2023-03-01T03:57:04;102891.53;;;17.49;38.66
61710;BME280;47633;51.494;5.386;2023-03-01T03:59:29;102887.25;;;17.46;38.82
61710;BME280;47633;51.494;5.386;2023-03-01T04:01:55;102889.88;;;17.46;38.73
61710;BME280;47633;51.494;5.386;2023-03-01T04:04:20;102882.84;;;17.47;39.05
61710;BME280;47633;51.494;5.386;2023-03-01T04:06:45;102876.69;;;17.46;38.98
61710;BME280;47633;51.494;5.386;2023-03-01T04:09:11;102882.78;;;17.48;39.10
61710;BME280;47633;51.494;5.386;2023-03-01T04:11:36;102875.72;;;17.49;39.14
61710;BME280;47633;51.494;5.386;2023-03-01T04:14:03;102859.91;;;17.49;39.16
61710;BME280;47633;51.494;5.386;2023-03-01T04:16:29;102863.44;;;17.48;39.28
61710;BME280;47633;51.494;5.386;2023-03-01T04:18:55;102863.44;;;17.48;39.10
61710;BME280;47633;51.494;5.386;2023-03-01T04:21:20;102869.41;;;17.51;39.38
61710;BME280;47633;51.494;5.386;2023-03-01T04:23:46;102871.22;;;17.51;39.38
61710;BME280;47633;51.494;5.386;2023-03-01T04:26:11;102870.44;;;17.49;39.22
61710;BME280;47633;51.494;5.386;2023-03-01T04:28:39;102866.09;;;17.48;39.42
61710;BME280;47633;51.494;5.386;2023-03-01T04:31:14;102854.75;;;17.46;39.42
61710;BME280;47633;51.494;5.386;2023-03-01T04:33:53;102865.09;;;17.50;39.12
61710;BME280;47633;51.494;5.386;2023-03-01T04:36:21;102856.31;;;17.50;39.20
61710;BME280;47633;51.494;5.386;2023-03-01T04:38:47;102858.03;;;17.51;39.33
61710;BME280;47633;51.494;5.386;2023-03-01T04:41:14;102857.97;;;17.52;39.42
61710;BME280;47633;51.494;5.386;2023-03-01T04:43:40;102861.44;;;17.53;39.49
61710;BME280;47633;51.494;5.386;2023-03-01T04:46:12;102858.88;;;17.51;39.42
61710;BME280;47633;51.494;5.386;2023-03-01T04:48:38;102844.91;;;17.49;39.20
61710;BME280;47633;51.494;5.386;2023-03-01T04:51:05;102849.13;;;17.53;39.48
61710;BME280;47633;51.494;5.386;2023-03-01T04:53:31;102839.66;;;17.49;39.08
61710;BME280;47633;51.494;5.386;2023-03-01T04:55:57;102829.19;;;17.48;38.86
61710;BME280;47633;51.494;5.386;2023-03-01T04:58:24;102828.13;;;17.52;39.05
61710;BME280;47633;51.494;5.386;2023-03-01T05:00:50;102832.44;;;17.53;39.18
61710;BME280;47633;51.494;5.386;2023-03-01T05:03:16;102841.22;;;17.53;39.27
61710;BME280;47633;51.494;5.386;2023-03-01T05:05:44;102838.66;;;17.52;38.95
61710;BME280;47633;51.494;5.386;2023-03-01T05:08:09;102836.81;;;17.54;39.11
61710;BME280;47633;51.494;5.386;2023-03-01T05:10:42;102846.50;;;17.53;39.55
61710;BME280;47633;51.494;5.386;2023-03-01T05:13:07;102840.28;;;17.54;39.28
61710;BME280;47633;51.494;5.386;2023-03-01T05:15:33;102843.88;;;17.53;39.21
61710;BME280;47633;51.494;5.386;2023-03-01T05:17:59;102840.41;;;17.51;39.33
61710;BME280;47633;51.494;5.386;2023-03-01T05:20:28;102837.78;;;17.51;39.17
61710;BME280;47633;51.494;5.386;2023-03-01T05:22:59;102838.66;;;17.52;39.08
61710;BME280;47633;51.494;5.386;2023-03-01T05:25:25;102834.16;;;17.54;39.26
61710;BME280;47633;51.494;5.386;2023-03-01T05:27:50;102832.31;;;17.56;39.10
61710;BME280;47633;51.494;5.386;2023-03-01T05:30:16;102821.91;;;17.53;39.11
61710;BME280;47633;51.494;5.386;2023-03-01T05:32:44;102818.56;;;17.49;39.30
61710;BME280;47633;51.494;5.386;2023-03-01T05:35:15;102820.06;;;17.55;39.10
61710;BME280;47633;51.494;5.386;2023-03-01T05:37:47;102816.56;;;17.54;38.98
61710;BME280;47633;51.494;5.386;2023-03-01T05:40:15;102808.78;;;17.51;38.56
61710;BME280;47633;51.494;5.386;2023-03-01T05:42:52;102810.38;;;17.55;38.42
61710;BME280;47633;51.494;5.386;2023-03-01T05:45:19;102801.47;;;17.58;38.06
61710;BME280;47633;51.494;5.386;2023-03-01T05:47:46;102799.59;;;17.60;38.28
61710;BME280;47633;51.494;5.386;2023-03-01T05:50:20;102797.66;;;17.64;38.24
61710;BME280;47633;51.494;5.386;2023-03-01T05:55:48;102805.06;;;17.74;38.18
61710;BME280;47633;51.494;5.386;2023-03-01T05:58:17;102810.13;;;17.79;38.10
61710;BME280;47633;51.494;5.386;2023-03-01T06:00:44;102804.69;;;17.82;38.27
61710;BME280;47633;51.494;5.386;2023-03-01T06:03:12;102805.47;;;17.84;37.85
61710;BME280;47633;51.494;5.386;2023-03-01T06:05:38;102800.94;;;17.86;37.88
61710;BME280;47633;51.494;5.386;2023-03-01T06:08:04;102801.78;;;17.88;37.92
61710;BME280;47633;51.494;5.386;2023-03-01T06:10:29;102798.19;;;17.89;37.96
61710;BME280;47633;51.494;5.386;2023-03-01T06:12:55;102798.84;;;17.94;38.00
61710;BME280;47633;51.494;5.386;2023-03-01T06:15:21;102791.00;;;17.93;37.96
61710;BME280;47633;51.494;5.386;2023-03-01T06:17:47;102791.69;;;17.97;37.88
61710;BME280;47633;51.494;5.386;2023-03-01T06:20:18;102793.50;;;17.96;38.03
61710;BME280;47633;51.494;5.386;2023-03-01T06:22:45;102797.81;;;17.97;38.16
61710;BME280;47633;51.494;5.386;2023-03-01T06:25:12;102797.75;;;17.99;37.95
61710;BME280;47633;51.494;5.386;2023-03-01T06:27:38;102796.81;;;18.00;37.97
61710;BME280;47633;51.494;5.386;2023-03-01T06:30:04;102804.59;;;18.03;37.55
61710;BME280;47633;51.494;5.386;2023-03-01T06:32:29;102801.16;;;18.01;37.87
61710;BME280;47633;51.494;5.386;2023-03-01T06:34:56;102806.28;;;18.04;37.78
61710;BME280;47633;51.494;5.386;2023-03-01T06:37:21;102811.63;;;18.02;38.08
61710;BME280;47633;51.494;5.386;2023-03-01T06:39:46;102807.22;;;18.03;38.01
61710;BME280;47633;51.494;5.386;2023-03-01T06:42:12;102815.75;;;18.08;37.88
61710;BME280;47633;51.494;5.386;2023-03-01T06:44:37;102805.34;;;18.05;38.06
61710;BME280;47633;51.494;5.386;2023-03-01T06:47:04;102809.72;;;18.06;37.88
61710;BME280;47633;51.494;5.386;2023-03-01T06:49:29;102808.69;;;18.08;38.09
61710;BME280;47633;51.494;5.386;2023-03-01T06:51:55;102808.69;;;18.08;38.01
61710;BME280;47633;51.494;5.386;2023-03-01T06:54:20;102806.06;;;18.08;38.18
61710;BME280;47633;51.494;5.386;2023-03-01T06:56:48;102802.66;;;18.06;37.91
61710;BME280;47633;51.494;5.386;2023-03-01T06:59:14;102802.72;;;18.05;38.10
61710;BME280;47633;51.494;5.386;2023-03-01T07:01:39;102808.91;;;18.04;38.11
61710;BME280;47633;51.494;5.386;2023-03-01T07:04:04;102800.00;;;18.06;37.91
61710;BME280;47633;51.494;5.386;2023-03-01T07:06:30;102800.84;;;18.07;38.03
61710;BME280;47633;51.494;5.386;2023-03-01T07:08:55;102802.50;;;18.09;38.20
61710;BME280;47633;51.494;5.386;2023-03-01T07:11:20;102796.38;;;18.09;37.89
61710;BME280;47633;51.494;5.386;2023-03-01T07:13:46;102786.88;;;18.05;37.82
61710;BME280;47633;51.494;5.386;2023-03-01T07:16:11;102801.66;;;18.09;37.93
61710;BME280;47633;51.494;5.386;2023-03-01T07:18:36;102803.50;;;18.07;38.15
61710;BME280;47633;51.494;5.386;2023-03-01T07:21:07;102805.22;;;18.08;38.01
61710;BME280;47633;51.494;5.386;2023-03-01T07:23:32;102813.88;;;18.10;38.03
61710;BME280;47633;51.494;5.386;2023-03-01T07:25:58;102820.88;;;18.11;38.07
61710;BME280;47633;51.494;5.386;2023-03-01T07:28:23;102822.84;;;18.07;37.88
61710;BME280;47633;51.494;5.386;2023-03-01T07:30:49;102813.97;;;18.08;37.55
61710;BME280;47633;51.494;5.386;2023-03-01T07:33:14;102820.97;;;18.09;37.39
61710;BME280;47633;51.494;5.386;2023-03-01T07:35:40;102816.53;;;18.10;37.42
61710;BME280;47633;51.494;5.386;2023-03-01T07:38:05;102816.47;;;18.11;37.72
61710;BME280;47633;51.494;5.386;2023-03-01T07:40:30;102814.75;;;18.10;37.58
61710;BME280;47633;51.494;5.386;2023-03-01T07:42:56;102812.28;;;18.07;37.80
61710;BME280;47633;51.494;5.386;2023-03-01T07:45:23;102810.56;;;18.06;38.01
61710;BME280;47633;51.494;5.386;2023-03-01T07:47:50;102822.69;;;18.10;38.48
61710;BME280;47633;51.494;5.386;2023-03-01T07:50:16;102812.34;;;18.06;38.66
61710;BME280;47633;51.494;5.386;2023-03-01T07:52:41;102817.41;;;18.10;38.30
61710;BME280;47633;51.494;5.386;2023-03-01T07:55:07;102821.56;;;18.15;38.62
61710;BME280;47633;51.494;5.386;2023-03-01T07:57:32;102811.19;;;18.11;38.54
61710;BME280;47633;51.494;5.386;2023-03-01T07:59:57;102811.97;;;18.13;38.81
61710;BME280;47633;51.494;5.386;2023-03-01T08:02:23;102817.94;;;18.17;38.72
61710;BME280;47633;51.494;5.386;2023-03-01T08:04:48;102820.50;;;18.19;39.09
61710;BME280;47633;51.494;5.386;2023-03-01T08:07:13;102813.34;;;18.21;39.04
61710;BME280;47633;51.494;5.386;2023-03-01T08:09:38;102809.00;;;18.20;39.38
61710;BME280;47633;51.494;5.386;2023-03-01T08:12:05;102816.75;;;18.23;39.54
61710;BME280;47633;51.494;5.386;2023-03-01T08:14:31;102814.91;;;18.25;39.37
61710;BME280;47633;51.494;5.386;2023-03-01T08:16:57;102810.56;;;18.24;39.80
61710;BME280;47633;51.494;5.386;2023-03-01T08:19:36;102816.63;;;18.26;39.71
61710;BME280;47633;51.494;5.386;2023-03-01T08:22:02;102815.69;;;18.27;39.76
61710;BME280;47633;51.494;5.386;2023-03-01T08:24:27;102815.63;;;18.28;39.93
61710;BME280;47633;51.494;5.386;2023-03-01T08:26:53;102813.75;;;18.30;39.84
61710;BME280;47633;51.494;5.386;2023-03-01T08:29:19;102808.53;;;18.29;39.91
61710;BME280;47633;51.494;5.386;2023-03-01T08:31:44;102805.91;;;18.29;39.84
61710;BME280;47633;51.494;5.386;2023-03-01T08:34:14;102804.81;;;18.33;39.79
61710;BME280;47633;51.494;5.386;2023-03-01T08:36:42;102810.94;;;18.34;39.90
61710;BME280;47633;51.494;5.386;2023-03-01T08:39:09;102803.03;;;18.34;40.07
61710;BME280;47633;51.494;5.386;2023-03-01T08:41:35;102806.34;;;18.37;39.74
61710;BME280;47633;51.494;5.386;2023-03-01T08:44:01;102802.88;;;18.37;39.78
61710;BME280;47633;51.494;5.386;2023-03-01T08:46:28;102803.63;;;18.39;39.86
61710;BME280;47633;51.494;5.386;2023-03-01T08:48:54;102784.41;;;18.37;39.82
61710;BME280;47633;51.494;5.386;2023-03-01T08:51:20;102787.72;;;18.40;39.79
61710;BME280;47633;51.494;5.386;2023-03-01T08:53:46;102780.75;;;18.39;39.69
61710;BME280;47633;51.494;5.386;2023-03-01T08:56:12;102786.03;;;18.39;39.62
61710;BME280;47633;51.494;5.386;2023-03-01T08:58:38;102785.06;;;18.40;39.75
61710;BME280;47633;51.494;5.386;2023-03-01T09:01:12;102783.41;;;18.39;39.64
61710;BME280;47633;51.494;5.386;2023-03-01T09:03:38;102789.34;;;18.43;39.36
61710;BME280;47633;51.494;5.386;2023-03-01T09:06:06;102786.72;;;18.43;39.69
61710;BME280;47633;51.494;5.386;2023-03-01T09:08:34;102781.38;;;18.44;39.34
61710;BME280;47633;51.494;5.386;2023-03-01T09:11:04;102771.13;;;18.38;39.59
61710;BME280;47633;51.494;5.386;2023-03-01T09:13:30;102773.59;;;18.41;39.48
61710;BME280;47633;51.494;5.386;2023-03-01T09:16:00;102767.47;;;18.41;39.23
61710;BME280;47633;51.494;5.386;2023-03-01T09:18:39;102769.09;;;18.43;39.71
61710;BME280;47633;51.494;5.386;2023-03-01T09:21:13;102762.13;;;18.42;39.63
61710;BME280;47633;51.494;5.386;2023-03-01T09:23:42;102760.09;;;18.47;39.49
61710;BME280;47633;51.494;5.386;2023-03-01T09:26:10;102760.09;;;18.47;39.54
61710;BME280;47633;51.494;5.386;2023-03-01T09:28:36;102759.31;;;18.45;39.28
61710;BME280;47633;51.494;5.386;2023-03-01T09:31:02;102759.31;;;18.45;39.35
61710;BME280;47633;51.494;5.386;2023-03-01T09:33:29;102753.16;;;18.45;39.68
61710;BME280;47633;51.494;5.386;2023-03-01T09:35:59;102746.97;;;18.46;39.42
61710;BME280;47633;51.494;5.386;2023-03-01T09:38:25;102754.72;;;18.49;39.68
61710;BME280;47633;51.494;5.386;2023-03-01T09:40:51;102752.91;;;18.49;39.86
61710;BME280;47633;51.494;5.386;2023-03-01T09:44:13;102747.72;;;18.48;39.95
61710;BME280;47633;51.494;5.386;2023-03-01T09:46:38;102744.06;;;18.51;39.89
61710;BME280;47633;51.494;5.386;2023-03-01T09:49:12;102739.72;;;18.49;39.84
61710;BME280;47633;51.494;5.386;2023-03-01T09:51:39;102738.72;;;18.52;39.83
61710;BME280;47633;51.494;5.386;2023-03-01T09:54:06;102742.13;;;18.54;39.89
61710;BME280;47633;51.494;5.386;2023-03-01T09:56:37;102734.03;;;18.57;40.01
61710;BME280;47633;51.494;5.386;2023-03-01T10:01:44;102725.34;;;18.55;40.13
61710;BME280;47633;51.494;5.386;2023-03-01T10:07:20;102721.59;;;18.59;40.22
61710;BME280;47633;51.494;5.386;2023-03-01T10:09:47;102714.72;;;18.57;40.38
61710;BME280;47633;51.494;5.386;2023-03-01T10:12:16;102709.28;;;18.60;40.65
61710;BME280;47633;51.494;5.386;2023-03-01T10:14:44;102712.66;;;18.62;40.46
61710;BME280;47633;51.494;5.386;2023-03-01T10:17:34;102710.88;;;18.62;40.36
61710;BME280;47633;51.494;5.386;2023-03-01T10:20:21;102701.84;;;18.66;40.90
61710;BME280;47633;51.494;5.386;2023-03-01T10:22:47;102702.28;;;18.75;41.49
61710;BME280;47633;51.494;5.386;2023-03-01T10:25:17;102690.09;;;18.72;41.59
61710;BME280;47633;51.494;5.386;2023-03-01T10:27:52;102679.38;;;18.75;41.81
61710;BME280;47633;51.494;5.386;2023-03-01T10:30:39;102684.56;;;18.77;40.77
61710;BME280;47633;51.494;5.386;2023-03-01T10:35:46;102680.81;;;18.81;41.74
61710;BME280;47633;51.494;5.386;2023-03-01T10:38:13;102691.31;;;18.82;41.90
61710;BME280;47633;51.494;5.386;2023-03-01T10:41:05;102685.25;;;18.80;41.85
61710;BME280;47633;51.494;5.386;2023-03-01T10:43:49;102678.09;;;18.82;42.01
61710;BME280;47633;51.494;5.386;2023-03-01T10:46:30;102682.41;;;18.85;41.98
61710;BME280;47633;51.494;5.386;2023-03-01T10:49:12;102680.53;;;18.87;42.54
61710;BME280;47633;51.494;5.386;2023-03-01T10:51:40;102671.72;;;18.87;42.23
61710;BME280;47633;51.494;5.386;2023-03-01T10:54:16;102677.13;;;18.85;42.46
61710;BME280;47633;51.494;5.386;2023-03-01T10:56:47;102681.28;;;18.89;42.51
61710;BME280;47633;51.494;5.386;2023-03-01T10:59:25;102677.63;;;18.92;42.50
61710;BME280;47633;51.494;5.386;2023-03-01T11:02:04;102683.66;;;18.94;42.56
61710;BME280;47633;51.494;5.386;2023-03-01T11:04:29;102680.78;;;18.98;42.20
61710;BME280;47633;51.494;5.386;2023-03-01T11:07:00;102679.94;;;18.98;41.92
61710;BME280;47633;51.494;5.386;2023-03-01T11:09:25;102676.31;;;18.99;41.64
61710;BME280;47633;51.494;5.386;2023-03-01T11:11:56;102667.47;;;19.00;41.64
61710;BME280;47633;51.494;5.386;2023-03-01T11:14:23;102668.31;;;19.00;41.63
61710;BME280;47633;51.494;5.386;2023-03-01T11:16:59;102673.00;;;18.95;41.49
61710;BME280;47633;51.494;5.386;2023-03-01T11:19:25;102675.22;;;19.03;41.97
61710;BME280;47633;51.494;5.386;2023-03-01T11:21:58;102668.56;;;18.96;42.36
61710;BME280;47633;51.494;5.386;2023-03-01T11:24:43;102677.19;;;18.99;42.29
61710;BME280;47633;51.494;5.386;2023-03-01T11:27:21;102672.50;;;19.05;41.95
61710;BME280;47633;51.494;5.386;2023-03-01T11:29:59;102665.69;;;19.00;42.42
61710;BME280;47633;51.494;5.386;2023-03-01T11:32:28;102668.06;;;19.05;42.47
61710;BME280;47633;51.494;5.386;2023-03-01T11:35:02;102685.47;;;19.09;42.30
61710;BME280;47633;51.494;5.386;2023-03-01T11:37:35;102680.34;;;19.06;41.50
61710;BME280;47633;51.494;5.386;2023-03-01T11:40:10;102665.50;;;19.03;41.64
61710;BME280;47633;51.494;5.386;2023-03-01T11:42:44;102671.47;;;19.07;41.72
61710;BME280;47633;51.494;5.386;2023-03-01T11:45:12;102641.81;;;19.02;41.62
61710;BME280;47633;51.494;5.386;2023-03-01T11:47:55;102652.13;;;19.07;41.56
61710;BME280;47633;51.494;5.386;2023-03-01T11:50:39;102629.34;;;19.04;41.44
61710;BME280;47633;51.494;5.386;2023-03-01T11:59:02;102650.56;;;19.02;41.29
61710;BME280;47633;51.494;5.386;2023-03-01T12:01:51;102641.72;;;19.03;41.33
61710;BME280;47633;51.494;5.386;2023-03-01T12:08:06;102635.25;;;19.09;41.90
61710;BME280;47633;51.494;5.386;2023-03-01T12:10:53;102631.38;;;19.15;42.19
61710;BME280;47633;51.494;5.386;2023-03-01T12:29:32;102599.81;;;19.28;42.20
61710;BME280;47633;51.494;5.386;2023-03-01T12:32:20;102589.59;;;19.21;42.14
61710;BME280;47633;51.494;5.386;2023-03-01T12:37:54;102601.59;;;19.27;42.54
61710;BME280;47633;51.494;5.386;2023-03-01T12:40:28;102603.81;;;19.35;41.86
61710;BME280;47633;51.494;5.386;2023-03-01T12:46:14;102588.59;;;19.38;41.73
61710;BME280;47633;51.494;5.386;2023-03-01T12:48:50;102589.25;;;19.42;41.76
61710;BME280;47633;51.494;5.386;2023-03-01T12:51:23;102579.75;;;19.39;42.32
61710;BME280;47633;51.494;5.386;2023-03-01T12:53:51;102581.44;;;19.40;41.52
61710;BME280;47633;51.494;5.386;2023-03-01T12:56:21;102581.25;;;19.44;40.91
61710;BME280;47633;51.494;5.386;2023-03-01T12:59:21;102578.59;;;19.44;40.74
61710;BME280;47633;51.494;5.386;2023-03-01T13:02:16;102573.22;;;19.45;41.53
61710;BME280;47633;51.494;5.386;2023-03-01T13:05:01;102557.34;;;19.45;41.54
61710;BME280;47633;51.494;5.386;2023-03-01T13:07:45;102560.59;;;19.50;41.01
61710;BME280;47633;51.494;5.386;2023-03-01T13:15:24;102551.16;;;19.61;40.89
61710;BME280;47633;51.494;5.386;2023-03-01T13:17:52;102545.03;;;19.60;41.11
61710;BME280;47633;51.494;5.386;2023-03-01T13:20:20;102533.84;;;19.55;40.32
61710;BME280;47633;51.494;5.386;2023-03-01T13:22:47;102541.59;;;19.58;40.48
61710;BME280;47633;51.494;5.386;2023-03-01T13:25:19;102533.75;;;19.56;41.44
61710;BME280;47633;51.494;5.386;2023-03-01T13:27:46;102525.91;;;19.55;41.55
61710;BME280;47633;51.494;5.386;2023-03-01T13:33:33;102531.19;;;19.55;42.51
61710;BME280;47633;51.494;5.386;2023-03-01T13:36:00;102497.88;;;19.52;41.88
61710;BME280;47633;51.494;5.386;2023-03-01T13:47:06;102502.53;;;19.63;41.63
61710;BME280;47633;51.494;5.386;2023-03-01T13:49:57;102489.56;;;19.58;41.95
61710;BME280;47633;51.494;5.386;2023-03-01T13:54:55;102478.13;;;19.58;41.66
61710;BME280;47633;51.494;5.386;2023-03-01T13:57:25;102474.75;;;19.56;42.07
61710;BME280;47633;51.494;5.386;2023-03-01T13:59:53;102470.28;;;19.56;42.37
61710;BME280;47633;51.494;5.386;2023-03-01T14:02:18;102469.34;;;19.57;42.07
61710;BME280;47633;51.494;5.386;2023-03-01T14:04:43;102469.44;;;19.56;42.52
61710;BME280;47633;51.494;5.386;2023-03-01T14:07:22;102476.34;;;19.58;42.54
61710;BME280;47633;51.494;5.386;2023-03-01T14:09:55;102460.78;;;19.54;42.47